Time;durP1;ratioP1;P1;durP2;ratioP2;P2;SDS_P1;SDS_P2;PMS_P1;PMS_P2;Temp;Humidity;BMP_temperature;BMP_pressure;BME280_temperature;BME280_humidity;BME280_pressure;Samples;Min_cycle;Max_cycle;Signal;HPM_P1;HPM_P2
2021/12/12 00:02:12;;;;;;;25.02;6.13;;;;;;;10.77;100.00;98748.88;5081508;28;20064;-21
2021/12/12 00:04:39;;;;;;;16.50;5.60;;;;;;;10.86;100.00;98750.00;5080171;28;20054;-20
2021/12/12 00:07:09;;;;;;;17.20;5.93;;;;;;;10.76;100.00;98755.25;5079077;28;20033;-20
2021/12/12 00:09:41;;;;;;;10.10;3.78;;;;;;;10.71;100.00;98765.88;5080458;28;20020;-20
2021/12/12 00:12:19;;;;;;;18.95;6.57;;;;;;;10.91;100.00;98797.28;5081053;28;20028;-20
2021/12/12 00:14:45;;;;;;;19.05;5.53;;;;;;;10.85;100.00;98799.06;5065724;28;20507;-20
2021/12/12 00:17:11;;;;;;;24.23;5.10;;;;;;;10.96;100.00;98832.00;5079269;28;20099;-19
2021/12/12 00:19:36;;;;;;;22.98;5.90;;;;;;;10.82;100.00;98847.56;5072157;28;20032;-19
2021/12/12 00:22:04;;;;;;;18.02;5.43;;;;;;;11.02;100.00;98867.53;5070391;28;20404;-20
2021/12/12 00:24:30;;;;;;;15.50;5.32;;;;;;;10.95;100.00;98874.91;5070083;28;20050;-20
2021/12/12 00:26:56;;;;;;;16.70;6.07;;;;;;;11.11;100.00;98919.38;5052427;28;20837;-19
2021/12/12 00:29:21;;;;;;;18.90;7.45;;;;;;;11.18;100.00;98887.19;5070543;28;20109;-21
2021/12/12 00:31:48;;;;;;;12.50;2.55;;;;;;;11.38;100.00;98913.25;5070319;28;20033;-20
2021/12/12 00:34:14;;;;;;;5.32;1.85;;;;;;;11.54;97.05;98884.81;5070620;28;20024;-19
2021/12/12 00:36:41;;;;;;;8.05;1.50;;;;;;;11.62;97.21;98874.47;5056261;28;20047;-19
2021/12/12 00:39:17;;;;;;;6.38;1.50;;;;;;;11.71;95.67;98833.94;5081403;28;20043;-20
2021/12/12 00:41:45;;;;;;;9.93;2.45;;;;;;;11.80;95.95;98824.41;5090736;28;20038;-20
2021/12/12 00:44:12;;;;;;;10.63;3.88;;;;;;;11.68;96.94;98783.72;5089927;28;20107;-20
2021/12/12 00:46:37;;;;;;;12.07;4.47;;;;;;;11.39;98.95;98754.72;5089761;28;20036;-21
2021/12/12 00:49:03;;;;;;;16.50;6.65;;;;;;;11.27;100.00;98746.88;5089829;28;20031;-20
2021/12/12 00:51:31;;;;;;;21.40;7.78;;;;;;;11.35;99.50;98764.28;5086326;28;20036;-20
2021/12/12 00:53:57;;;;;;;17.92;4.88;;;;;;;11.11;100.00;98780.63;5058021;28;20032;-21
2021/12/12 00:56:22;;;;;;;14.60;6.05;;;;;;;11.07;100.00;98779.53;5078947;28;20097;-21
2021/12/12 00:58:48;;;;;;;12.25;4.05;;;;;;;11.22;100.00;98802.88;5059126;28;20107;-20
2021/12/12 01:01:17;;;;;;;14.65;4.20;;;;;;;11.26;100.00;98820.81;5069529;28;20410;-20
2021/12/12 01:03:47;;;;;;;11.00;3.20;;;;;;;11.15;100.00;98823.63;5069281;28;20107;-20
2021/12/12 01:06:12;;;;;;;17.45;6.32;;;;;;;11.08;100.00;98818.50;5068942;28;20090;-20
2021/12/12 01:08:39;;;;;;;21.55;5.32;;;;;;;11.11;100.00;98828.66;5050837;28;20071;-20
2021/12/12 01:11:16;;;;;;;10.65;3.13;;;;;;;11.25;99.98;98859.22;5069451;28;20427;-20
2021/12/12 01:13:41;;;;;;;8.88;2.30;;;;;;;11.44;98.91;98856.16;5069643;28;20107;-19
2021/12/12 01:16:17;;;;;;;9.52;1.60;;;;;;;11.45;97.53;98873.81;5068962;28;20032;-19
2021/12/12 01:18:46;;;;;;;5.15;1.35;;;;;;;11.75;94.90;98881.28;5068678;28;20081;-21
2021/12/12 01:21:15;;;;;;;7.38;1.42;;;;;;;11.41;95.78;98897.53;5069308;28;20075;-20
2021/12/12 01:23:43;;;;;;;6.88;1.90;;;;;;;11.23;95.76;98916.56;5051081;28;20403;-20
2021/12/12 01:26:09;;;;;;;8.77;1.85;;;;;;;10.88;95.96;98907.13;5050994;28;20040;-20
2021/12/12 01:28:36;;;;;;;10.13;2.53;;;;;;;10.89;94.94;98905.25;5050929;28;20062;-19
2021/12/12 01:31:04;;;;;;;5.22;2.35;;;;;;;10.91;94.69;98911.97;5068895;28;20033;-20
2021/12/12 01:33:35;;;;;;;4.05;1.45;;;;;;;10.79;94.50;98901.44;5068385;28;20052;-19
2021/12/12 01:36:25;;;;;;;4.25;0.85;;;;;;;10.79;94.71;98876.63;5068471;28;20416;-20
2021/12/12 01:41:16;;;;;;;5.70;0.82;;;;;;;10.82;95.57;98886.78;5069059;28;20488;-20
2021/12/12 01:43:45;;;;;;;2.08;0.68;;;;;;;10.75;94.43;98865.63;5051085;28;20032;-19
2021/12/12 01:46:27;;;;;;;3.90;1.08;;;;;;;10.71;93.39;98861.88;5050749;28;20032;-19
2021/12/12 01:49:16;;;;;;;2.67;0.90;;;;;;;10.71;92.81;98864.53;5050589;28;20399;-19
2021/12/12 01:51:42;;;;;;;2.90;0.70;;;;;;;10.71;93.04;98883.19;5050617;28;20032;-20
2021/12/12 01:54:08;;;;;;;3.38;0.63;;;;;;;10.75;92.76;98870.97;5068448;28;20086;-19
2021/12/12 01:56:41;;;;;;;2.70;0.70;;;;;;;10.57;93.30;98880.09;5068173;28;20024;-19
2021/12/12 01:59:07;;;;;;;2.92;1.30;;;;;;;10.42;93.40;98864.72;5068202;28;20464;-19
2021/12/12 02:01:48;;;;;;;3.80;1.17;;;;;;;10.44;92.27;98867.94;5068423;28;20075;-19
2021/12/12 02:04:19;;;;;;;3.63;0.80;;;;;;;10.52;92.64;98895.19;5068922;28;20028;-19
2021/12/12 02:06:47;;;;;;;2.30;0.70;;;;;;;10.55;92.60;98905.38;5050221;28;20075;-19
2021/12/12 02:09:12;;;;;;;2.60;0.77;;;;;;;10.45;92.34;98911.38;5050830;28;20488;-19
2021/12/12 02:11:38;;;;;;;0.90;0.47;;;;;;;10.52;91.69;98908.53;5068384;28;20040;-19
2021/12/12 02:14:10;;;;;;;2.15;0.52;;;;;;;10.57;91.44;98882.75;5050585;28;20125;-20
2021/12/12 02:16:43;;;;;;;2.83;0.70;;;;;;;10.69;90.46;98889.84;5067211;28;20479;-20
2021/12/12 02:19:08;;;;;;;1.92;0.60;;;;;;;10.50;90.56;98887.47;5068181;28;20071;-21
2021/12/12 02:22:10;;;;;;;3.40;1.13;;;;;;;10.64;89.53;98882.56;5068184;28;20115;-20
2021/12/12 02:35:43;;;;;;;4.00;2.08;;;;;;;11.21;85.60;98926.69;5052293;28;20426;-20
2021/12/12 02:38:11;;;;;;;5.97;3.20;;;;;;;11.25;85.53;98936.59;5051718;28;20117;-20
2021/12/12 02:40:44;;;;;;;4.68;2.10;;;;;;;11.03;85.15;98935.81;5067845;28;20049;-19
2021/12/12 02:43:15;;;;;;;5.03;2.00;;;;;;;10.93;86.19;98938.38;5067961;28;20036;-20
2021/12/12 02:45:41;;;;;;;4.65;2.05;;;;;;;10.61;87.76;98931.84;5067869;28;20048;-19
2021/12/12 02:48:09;;;;;;;5.20;1.67;;;;;;;10.48;87.67;98918.88;5067730;28;20393;-20
2021/12/12 02:50:41;;;;;;;4.63;1.65;;;;;;;10.36;89.05;98927.00;5067499;28;20056;-20
2021/12/12 02:53:23;;;;;;;3.53;1.98;;;;;;;10.36;89.00;98923.50;5067976;28;20067;-20
2021/12/12 02:55:55;;;;;;;2.30;1.42;;;;;;;9.94;91.38;98902.63;5067838;28;20052;-19
2021/12/12 02:58:21;;;;;;;2.67;1.30;;;;;;;9.94;91.37;98900.75;5067926;28;20028;-19
2021/12/12 03:00:57;;;;;;;5.40;2.00;;;;;;;9.96;91.39;98914.66;5067332;28;20083;-20
2021/12/12 03:03:25;;;;;;;2.05;0.73;;;;;;;9.73;92.84;98934.25;5067792;28;20037;-19
2021/12/12 03:05:51;;;;;;;1.83;0.65;;;;;;;9.60;94.54;98958.50;5050088;28;20300;-20
2021/12/12 03:08:17;;;;;;;2.70;0.70;;;;;;;9.51;95.10;98959.97;5067853;28;20497;-20
2021/12/12 03:10:44;;;;;;;4.97;2.15;;;;;;;9.65;94.36;98962.06;5067427;28;20039;-19
2021/12/12 03:13:10;;;;;;;13.20;6.32;;;;;;;9.82;93.65;98972.72;5067657;28;20032;-19
2021/12/12 03:15:39;;;;;;;5.75;3.00;;;;;;;9.71;93.43;98980.81;5067305;28;20469;-20
2021/12/12 03:18:06;;;;;;;7.13;3.80;;;;;;;9.57;92.91;98954.47;5067179;28;20506;-19
2021/12/12 03:20:37;;;;;;;4.78;1.70;;;;;;;9.72;92.83;98966.44;5067289;28;20085;-20
2021/12/12 03:23:15;;;;;;;5.28;2.80;;;;;;;9.96;91.34;98981.22;5067332;28;20028;-20
2021/12/12 03:25:40;;;;;;;4.77;1.23;;;;;;;9.62;92.98;98983.88;5067627;28;20115;-19
2021/12/12 03:28:07;;;;;;;5.47;1.00;;;;;;;9.63;92.88;98974.81;5068949;28;20035;-20
2021/12/12 03:30:32;;;;;;;3.30;1.50;;;;;;;9.74;92.17;98977.66;5071238;28;20044;-19
2021/12/12 03:32:58;;;;;;;3.20;1.20;;;;;;;9.54;93.00;98976.25;5071204;28;20036;-20
2021/12/12 03:35:23;;;;;;;2.92;0.77;;;;;;;9.24;93.96;98965.84;5070785;28;20052;-19
2021/12/12 03:37:49;;;;;;;3.03;1.17;;;;;;;9.40;93.70;98974.94;5071324;28;20488;-19
2021/12/12 03:40:20;;;;;;;4.22;1.95;;;;;;;9.50;92.79;98979.63;5071230;28;20029;-20
2021/12/12 03:42:48;;;;;;;3.13;1.30;;;;;;;9.73;90.79;98965.41;5070684;28;20046;-19
2021/12/12 03:45:14;;;;;;;11.13;6.28;;;;;;;9.92;89.54;98966.78;5070882;28;20024;-19
2021/12/12 03:47:43;;;;;;;2.92;1.55;;;;;;;10.23;87.44;98972.59;5070812;28;20039;-19
2021/12/12 03:50:20;;;;;;;4.03;1.25;;;;;;;9.98;87.15;98957.03;5071032;28;20040;-19
2021/12/12 03:52:46;;;;;;;6.10;1.80;;;;;;;10.00;88.91;98969.03;5071043;28;20414;-20
2021/12/12 03:55:12;;;;;;;4.07;1.55;;;;;;;9.85;87.82;98947.50;5071104;28;20780;-19
2021/12/12 03:57:37;;;;;;;4.82;2.00;;;;;;;10.23;87.19;98972.59;5070802;28;20028;-19
2021/12/12 04:00:05;;;;;;;3.13;1.15;;;;;;;10.14;86.00;98963.41;5070751;28;20427;-20
2021/12/12 04:02:31;;;;;;;2.80;0.70;;;;;;;9.98;84.98;98952.50;5070651;28;20037;-20
2021/12/12 04:04:57;;;;;;;2.75;0.60;;;;;;;9.88;85.81;98964.84;5070700;28;20043;-20
2021/12/12 04:07:24;;;;;;;2.33;0.50;;;;;;;9.81;85.76;98960.50;5052901;28;20551;-20
2021/12/12 04:09:50;;;;;;;2.25;0.50;;;;;;;9.84;87.08;98985.81;5053035;28;20055;-20
2021/12/12 04:12:17;;;;;;;0.65;0.43;;;;;;;9.96;86.33;98997.22;5070423;28;20032;-20
2021/12/12 04:14:42;;;;;;;2.22;0.40;;;;;;;9.78;86.28;98982.25;5069937;28;20043;-20
2021/12/12 04:17:13;;;;;;;1.10;0.38;;;;;;;9.70;86.61;98990.63;5070566;28;20036;-19
2021/12/12 04:19:39;;;;;;;13.55;9.10;;;;;;;9.76;85.54;99005.66;5070820;28;20408;-19
2021/12/12 04:22:05;;;;;;;7.32;2.97;;;;;;;9.50;86.78;98995.59;5070172;28;20032;-19
2021/12/12 04:24:33;;;;;;;7.55;2.85;;;;;;;9.73;87.34;99029.31;5070312;28;20036;-20
2021/12/12 04:26:58;;;;;;;10.02;3.63;;;;;;;9.13;90.03;99028.66;5070350;28;20051;-20
2021/12/12 04:29:28;;;;;;;6.10;2.35;;;;;;;9.17;89.74;99029.81;5070207;28;20781;-20
2021/12/12 04:32:00;;;;;;;7.22;2.00;;;;;;;8.98;89.67;99015.88;5070333;28;20089;-19
2021/12/12 04:34:27;;;;;;;7.15;2.65;;;;;;;9.18;89.63;99035.97;5070361;28;20613;-21
2021/12/12 04:36:53;;;;;;;7.22;2.40;;;;;;;9.60;88.38;99049.00;5070130;28;20061;-20
2021/12/12 04:39:21;;;;;;;4.97;1.98;;;;;;;9.95;85.88;99050.72;5069753;28;20860;-20
2021/12/12 04:41:48;;;;;;;4.00;1.92;;;;;;;9.97;84.83;99045.94;5052010;28;20033;-21
2021/12/12 04:44:22;;;;;;;9.63;4.30;;;;;;;10.25;82.91;99071.75;5070016;28;20056;-20
2021/12/12 04:49:56;;;;;;;7.15;2.10;;;;;;;9.83;80.19;99064.09;5070133;28;20085;-20
2021/12/12 04:52:43;;;;;;;6.70;3.58;;;;;;;10.19;80.44;99078.03;5069771;28;20537;-19
2021/12/12 04:55:29;;;;;;;7.95;4.05;;;;;;;9.94;80.99;99071.22;5069666;28;20020;-20
2021/12/12 04:58:31;;;;;;;8.52;4.18;;;;;;;10.21;79.23;99087.41;5069899;28;20021;-20
2021/12/12 05:01:00;;;;;;;9.65;4.90;;;;;;;9.99;79.64;99084.63;5069766;28;20135;-19
2021/12/12 05:03:31;;;;;;;17.38;10.32;;;;;;;10.02;79.67;99073.50;5051721;28;20056;-19
2021/12/12 05:06:07;;;;;;;11.77;6.63;;;;;;;9.97;79.29;99081.41;5051889;28;20067;-20
2021/12/12 05:08:46;;;;;;;9.60;4.75;;;;;;;9.73;80.58;99086.00;5051284;28;20032;-20
2021/12/12 05:11:19;;;;;;;5.75;2.80;;;;;;;9.78;80.84;99093.28;5051653;28;20031;-20
2021/12/12 05:13:54;;;;;;;7.60;3.53;;;;;;;9.57;80.68;99087.56;5069495;28;20028;-19
2021/12/12 05:16:29;;;;;;;4.53;2.17;;;;;;;9.10;82.06;99087.66;5035618;28;20020;-20
2021/12/12 05:19:04;;;;;;;7.05;3.17;;;;;;;8.74;84.06;99096.69;5051679;28;20033;-20
2021/12/12 05:21:35;;;;;;;5.97;2.80;;;;;;;8.61;84.86;99095.88;5052167;28;20025;-20
2021/12/12 05:24:03;;;;;;;5.32;1.85;;;;;;;8.81;83.47;99105.38;5069316;28;20036;-19
2021/12/12 05:26:54;;;;;;;4.43;1.20;;;;;;;8.78;83.91;99111.94;5051085;28;20135;-20
2021/12/12 05:29:21;;;;;;;8.73;3.22;;;;;;;8.87;84.02;99116.91;5069253;28;20048;-19
2021/12/12 05:31:47;;;;;;;5.40;2.30;;;;;;;8.93;82.87;99115.97;5050978;28;20411;-19
2021/12/12 05:34:14;;;;;;;8.23;3.22;;;;;;;9.19;82.17;99133.31;5068798;28;20044;-19
2021/12/12 05:36:39;;;;;;;6.90;2.90;;;;;;;9.34;80.30;99124.88;5050571;28;20092;-20
2021/12/12 05:39:05;;;;;;;6.13;2.75;;;;;;;9.16;81.08;99133.81;5034389;28;20094;-19
2021/12/12 05:41:30;;;;;;;6.43;2.67;;;;;;;9.23;81.52;99140.63;5068954;28;20093;-19
2021/12/12 05:43:56;;;;;;;7.05;2.55;;;;;;;9.10;80.50;99108.94;5051095;28;20512;-20
2021/12/12 05:46:23;;;;;;;4.78;2.33;;;;;;;9.35;79.55;99134.47;5068531;28;20123;-20
2021/12/12 05:48:48;;;;;;;7.75;3.10;;;;;;;9.33;79.08;99128.56;5050784;28;20820;-19
2021/12/12 05:51:14;;;;;;;11.95;5.85;;;;;;;9.20;78.56;99117.13;5050001;28;20036;-20
2021/12/12 05:53:39;;;;;;;16.60;8.07;;;;;;;9.00;80.49;99124.66;5068854;28;20031;-20
2021/12/12 05:56:05;;;;;;;20.00;11.48;;;;;;;9.25;79.25;99138.53;5068617;28;20440;-19
2021/12/12 05:58:31;;;;;;;20.90;10.85;;;;;;;9.23;78.17;99145.94;5068436;28;20029;-19
2021/12/12 06:00:58;;;;;;;18.30;9.10;;;;;;;8.99;79.79;99166.41;5068377;28;20036;-19
2021/12/12 06:03:28;;;;;;;14.18;7.50;;;;;;;8.98;79.25;99178.06;5068404;28;20089;-19
2021/12/12 06:05:54;;;;;;;19.40;9.38;;;;;;;8.97;79.51;99194.25;5050725;28;20468;-20
2021/12/12 06:08:20;;;;;;;45.90;21.65;;;;;;;8.91;78.72;99190.69;5050326;28;20097;-20
2021/12/12 06:10:46;;;;;;;21.98;9.48;;;;;;;8.87;78.56;99196.66;5050571;28;20029;-20
2021/12/12 06:13:14;;;;;;;43.88;21.20;;;;;;;8.78;79.12;99215.59;5050477;28;20040;-19
2021/12/12 06:15:41;;;;;;;81.10;39.03;;;;;;;9.13;78.51;99222.03;5068052;28;20064;-20
2021/12/12 06:18:06;;;;;;;20.30;11.50;;;;;;;9.14;78.80;99231.66;5050189;28;20038;-20
2021/12/12 06:20:32;;;;;;;16.00;8.52;;;;;;;9.26;77.88;99235.13;5033577;28;20036;-19
2021/12/12 06:22:57;;;;;;;16.33;8.70;;;;;;;9.16;78.95;99246.34;5033544;28;20416;-20
2021/12/12 06:25:24;;;;;;;36.15;21.17;;;;;;;9.07;77.94;99246.88;5067921;28;20036;-21
2021/12/12 06:27:49;;;;;;;44.08;33.50;;;;;;;8.87;78.88;99268.47;5068150;28;20036;-21
2021/12/12 06:30:16;;;;;;;45.08;26.58;;;;;;;8.41;81.51;99266.22;5068254;28;20028;-21
2021/12/12 06:32:45;;;;;;;29.20;18.00;;;;;;;8.53;80.47;99246.88;5068062;28;20040;-20
2021/12/12 06:35:11;;;;;;;41.67;19.45;;;;;;;8.75;79.86;99218.75;5067451;28;20060;-20
2021/12/12 06:37:36;;;;;;;24.67;12.20;;;;;;;8.89;77.50;99237.13;5068231;28;20024;-20
2021/12/12 06:40:06;;;;;;;34.63;17.05;;;;;;;9.20;77.14;99234.19;5067821;28;20036;-20
2021/12/12 06:42:32;;;;;;;29.15;20.15;;;;;;;9.22;77.16;99221.47;5068076;28;20021;-20
2021/12/12 06:44:57;;;;;;;25.38;16.73;;;;;;;9.21;76.23;99241.16;5050053;28;20033;-20
2021/12/12 06:47:23;;;;;;;28.05;22.92;;;;;;;9.21;76.14;99246.47;5049891;28;20037;-20
2021/12/12 06:49:48;;;;;;;26.65;18.60;;;;;;;9.14;76.98;99243.09;5050100;28;20078;-20
2021/12/12 06:52:14;;;;;;;65.00;45.28;;;;;;;8.97;77.25;99232.31;5049738;28;20040;-20
2021/12/12 06:54:39;;;;;;;61.47;43.40;;;;;;;9.35;76.86;99248.88;5049470;28;20040;-20
2021/12/12 06:57:12;;;;;;;62.92;44.10;;;;;;;9.65;76.08;99259.44;5067898;28;20067;-21
2021/12/12 06:59:39;;;;;;;22.52;13.63;;;;;;;9.61;74.52;99259.06;5049915;28;20441;-20
2021/12/12 07:02:05;;;;;;;20.10;12.40;;;;;;;9.66;75.38;99258.38;5049979;28;20032;-20
2021/12/12 07:04:31;;;;;;;23.58;14.25;;;;;;;9.93;74.63;99268.53;5071467;28;20040;-20
2021/12/12 07:06:58;;;;;;;23.55;12.98;;;;;;;9.34;77.47;99264.06;5072067;28;20032;-19
2021/12/12 07:09:24;;;;;;;15.88;7.55;;;;;;;8.84;79.59;99280.38;5071661;28;20060;-20
2021/12/12 07:11:50;;;;;;;30.05;13.07;;;;;;;9.24;79.36;99285.09;5071563;28;20204;-19
2021/12/12 07:14:15;;;;;;;30.88;13.23;;;;;;;9.57;78.32;99281.88;5071810;28;20028;-20
2021/12/12 07:16:41;;;;;;;28.17;11.80;;;;;;;9.99;77.31;99281.75;5071158;28;20032;-20
2021/12/12 07:19:07;;;;;;;114.60;58.28;;;;;;;10.02;76.76;99278.59;5071485;28;20028;-20
2021/12/12 07:21:32;;;;;;;406.83;252.38;;;;;;;9.99;76.59;99263.09;5071635;28;20040;-19
2021/12/12 07:23:59;;;;;;;334.45;194.50;;;;;;;10.11;77.50;99273.72;5053453;28;20028;-20
2021/12/12 07:26:24;;;;;;;54.78;28.23;;;;;;;10.11;76.68;99297.69;5053213;28;20063;-20
2021/12/12 07:28:51;;;;;;;11.73;6.50;;;;;;;9.85;76.73;99296.34;5053648;28;20070;-20
2021/12/12 07:31:28;;;;;;;155.30;138.57;;;;;;;10.19;76.43;99281.34;5071286;28;20058;-20
2021/12/12 07:33:55;;;;;;;14.32;6.72;;;;;;;10.62;75.72;99311.25;5071381;28;20048;-20
2021/12/12 07:36:21;;;;;;;18.90;13.85;;;;;;;10.73;77.84;99302.41;5070777;28;20517;-20
2021/12/12 07:38:54;;;;;;;22.88;14.27;;;;;;;11.07;76.90;99310.47;5070713;28;20630;-20
2021/12/12 07:41:21;;;;;;;22.23;11.40;;;;;;;11.14;77.47;99305.00;5053335;28;20468;-20
2021/12/12 07:43:46;;;;;;;18.17;13.52;;;;;;;11.40;76.45;99311.56;5071165;28;20089;-21
2021/12/12 07:46:12;;;;;;;11.13;6.38;;;;;;;11.54;77.61;99317.38;5053260;28;20036;-20
2021/12/12 07:48:39;;;;;;;37.75;34.10;;;;;;;11.82;76.01;99313.81;5052911;28;20028;-20
2021/12/12 07:51:05;;;;;;;43.20;37.08;;;;;;;11.99;75.79;99327.97;5053715;28;20036;-20
2021/12/12 07:53:31;;;;;;;18.17;12.32;;;;;;;12.03;75.88;99337.13;5070889;28;20033;-19
2021/12/12 07:55:56;;;;;;;19.00;11.05;;;;;;;12.03;75.62;99346.97;5070746;28;20492;-21
2021/12/12 07:58:22;;;;;;;10.48;4.53;;;;;;;12.06;75.31;99344.63;5052902;28;20448;-20
2021/12/12 08:00:49;;;;;;;11.05;5.45;;;;;;;11.85;74.18;99307.97;5070381;28;20093;-20
2021/12/12 08:03:15;;;;;;;11.35;4.95;;;;;;;12.53;73.09;99339.91;5070714;28;20024;-20
2021/12/12 08:05:40;;;;;;;10.50;6.82;;;;;;;12.70;72.52;99350.50;5070822;28;20032;-20
2021/12/12 08:08:09;;;;;;;25.48;13.52;;;;;;;12.86;71.35;99355.78;5071238;28;20036;-19
2021/12/12 08:10:35;;;;;;;17.55;9.88;;;;;;;12.88;71.08;99368.13;5070323;28;20063;-20
2021/12/12 08:13:00;;;;;;;10.18;5.05;;;;;;;12.35;69.50;99373.88;5052438;28;20028;-19
2021/12/12 08:15:27;;;;;;;14.63;7.85;;;;;;;12.74;69.99;99368.47;5051578;28;20028;-20
2021/12/12 08:17:54;;;;;;;4.88;2.35;;;;;;;12.80;68.80;99383.53;5052702;28;20068;-20
2021/12/12 08:20:20;;;;;;;50.40;41.60;;;;;;;14.30;67.33;99373.03;5052758;28;20090;-20
2021/12/12 08:22:46;;;;;;;34.95;22.85;;;;;;;15.46;68.59;99389.00;5052367;28;20036;-20
2021/12/12 08:25:12;;;;;;;55.40;31.60;;;;;;;16.04;66.70;99383.38;5070592;28;20476;-21
2021/12/12 08:27:39;;;;;;;21.88;13.50;;;;;;;15.69;63.97;99382.28;5070537;28;20056;-20
2021/12/12 08:30:05;;;;;;;30.92;16.42;;;;;;;14.81;65.98;99383.22;5070448;28;20483;-20
2021/12/12 08:32:30;;;;;;;26.90;14.90;;;;;;;14.84;66.38;99375.44;5070194;28;20077;-20
2021/12/12 08:34:56;;;;;;;29.52;25.40;;;;;;;15.16;63.92;99384.38;5069870;28;20436;-21
2021/12/12 08:37:21;;;;;;;21.60;13.60;;;;;;;15.16;63.51;99390.56;5035831;28;20040;-20
2021/12/12 08:39:46;;;;;;;20.77;17.08;;;;;;;14.83;64.48;99379.22;5035297;28;20036;-20
2021/12/12 08:42:12;;;;;;;12.68;8.27;;;;;;;14.94;65.63;99392.66;5068596;28;20910;-19
2021/12/12 08:44:37;;;;;;;17.63;9.90;;;;;;;15.46;65.06;99397.06;5069845;28;20085;-21
2021/12/12 08:47:05;;;;;;;19.20;11.05;;;;;;;15.14;64.82;99398.09;5070010;28;20116;-20
2021/12/12 08:49:31;;;;;;;11.33;4.53;;;;;;;13.83;67.34;99389.88;5069986;28;20021;-20
2021/12/12 08:52:01;;;;;;;7.65;3.55;;;;;;;13.54;67.51;99382.16;5069951;28;20043;-20
2021/12/12 08:54:28;;;;;;;7.75;3.88;;;;;;;13.84;67.67;99396.88;5069945;28;20094;-20
2021/12/12 08:57:04;;;;;;;10.68;4.72;;;;;;;14.37;70.36;99378.19;5068465;28;20071;-20
2021/12/12 08:59:31;;;;;;;16.52;14.85;;;;;;;14.80;64.70;99392.34;5070043;28;20132;-20
2021/12/12 09:01:59;;;;;;;8.23;4.15;;;;;;;14.28;65.05;99388.56;5069489;28;20036;-20
2021/12/12 09:04:27;;;;;;;;;;;;;;;14.15;67.28;99391.72;5051992;28;20032;-19
2021/12/12 09:07:04;;;;;;;;;;;;;;;14.10;68.39;99389.00;5068605;28;19924;-19
2021/12/12 09:09:33;;;;;;;9.80;5.72;;;;;;;14.38;64.18;99385.94;5051340;28;19917;-19
2021/12/12 09:12:25;;;;;;;7.90;4.57;;;;;;;15.10;62.05;99396.19;5051470;28;20029;-21
2021/12/12 09:14:54;;;;;;;15.85;7.22;;;;;;;15.72;60.32;99397.06;5058259;28;20123;-20
2021/12/12 09:17:29;;;;;;;12.40;10.40;;;;;;;15.43;61.95;99416.41;5069591;28;20028;-20
2021/12/12 09:20:03;;;;;;;13.07;10.25;;;;;;;15.37;64.70;99404.03;5069061;28;20094;-20
2021/12/12 09:22:33;;;;;;;9.10;4.82;;;;;;;15.64;60.47;99406.47;5069073;28;20028;-21
2021/12/12 09:25:16;;;;;;;6.80;4.13;;;;;;;15.58;60.05;99413.72;5069027;28;20123;-20
2021/12/12 09:27:44;;;;;;;22.25;12.98;;;;;;;16.70;60.71;99403.91;5035348;28;20046;-20
2021/12/12 09:30:29;;;;;;;9.20;4.68;;;;;;;17.24;59.37;99416.59;5051732;28;20867;-19
2021/12/12 09:33:09;;;;;;;17.52;9.77;;;;;;;17.90;56.28;99417.22;5069087;28;20033;-20
2021/12/12 09:35:43;;;;;;;19.45;11.82;;;;;;;16.84;58.46;99402.25;5068554;28;20415;-19
2021/12/12 09:38:24;;;;;;;6.57;2.45;;;;;;;17.57;53.33;99414.22;5051035;28;20033;-19
2021/12/12 09:41:18;;;;;;;4.57;2.17;;;;;;;17.93;50.38;99422.03;5068824;28;20127;-19
2021/12/12 09:44:14;;;;;;;6.80;2.60;;;;;;;18.39;54.68;99418.13;5068858;28;20115;-19
2021/12/12 09:46:58;;;;;;;6.10;2.63;;;;;;;17.07;56.68;99435.78;5068633;28;20032;-20
2021/12/12 09:53:00;;;;;;;9.25;3.50;;;;;;;16.57;62.72;99426.00;5055609;28;20094;-19
2021/12/12 09:56:02;;;;;;;6.25;2.22;;;;;;;16.57;61.64;99420.63;5052478;28;20154;-19
2021/12/12 09:58:43;;;;;;;8.40;3.40;;;;;;;16.85;61.77;99430.78;5041331;28;20045;-19
2021/12/12 10:01:13;;;;;;;5.20;2.13;;;;;;;16.67;61.47;99425.97;5068427;28;20047;-19
2021/12/12 10:03:47;;;;;;;8.80;2.90;;;;;;;16.30;61.47;99429.84;5050372;28;20083;-19
2021/12/12 10:06:37;;;;;;;9.80;3.78;;;;;;;16.13;65.72;99423.97;5068429;28;20029;-20
2021/12/12 10:09:12;;;;;;;7.90;3.70;;;;;;;16.62;61.36;99421.41;5067810;28;20137;-20
2021/12/12 10:11:56;;;;;;;9.57;3.00;;;;;;;17.07;60.71;99413.44;5068260;28;20041;-19
2021/12/12 10:14:45;;;;;;;6.80;3.20;;;;;;;16.90;58.61;99426.44;5068398;28;20081;-19
2021/12/12 10:17:28;;;;;;;7.57;2.85;;;;;;;17.39;60.51;99428.38;5068100;28;20029;-20
2021/12/12 10:20:14;;;;;;;4.38;2.35;;;;;;;17.45;59.02;99429.94;5068411;28;20041;-20
2021/12/12 10:23:10;;;;;;;5.38;2.47;;;;;;;17.77;58.67;99428.63;5067672;28;20036;-19
2021/12/12 10:26:05;;;;;;;5.53;2.70;;;;;;;17.82;56.61;99415.91;5068192;28;20036;-20
2021/12/12 10:28:34;;;;;;;8.82;3.60;;;;;;;17.55;58.48;99415.56;5033021;28;20037;-19
2021/12/12 10:31:21;;;;;;;5.55;2.05;;;;;;;17.99;53.11;99418.22;5050762;28;20036;-19
2021/12/12 10:33:53;;;;;;;7.13;2.00;;;;;;;18.38;54.57;99406.50;5067991;28;20123;-19
2021/12/12 10:36:22;;;;;;;3.17;1.90;;;;;;;19.21;49.75;99417.13;5068092;28;20080;-19
2021/12/12 10:38:57;;;;;;;4.38;1.67;;;;;;;18.69;50.13;99416.94;5049442;28;20033;-20
2021/12/12 10:41:38;;;;;;;4.30;1.50;;;;;;;18.73;51.34;99411.78;5049687;28;20389;-20
2021/12/12 10:44:12;;;;;;;3.42;1.30;;;;;;;19.07;47.24;99411.63;5050078;28;20032;-20
2021/12/12 10:46:44;;;;;;;4.72;1.40;;;;;;;19.55;47.64;99422.28;5050129;28;20036;-19
2021/12/12 10:49:37;;;;;;;5.03;1.40;;;;;;;19.51;46.93;99426.66;5067929;28;20024;-19
2021/12/12 10:52:11;;;;;;;4.47;1.50;;;;;;;19.52;46.05;99420.19;5068049;28;20484;-20
2021/12/12 10:54:42;;;;;;;4.40;1.60;;;;;;;19.24;48.97;99422.72;5050161;28;20695;-20
2021/12/12 10:57:36;;;;;;;5.15;1.80;;;;;;;19.21;50.47;99423.34;5067587;28;20033;-20
2021/12/12 11:00:23;;;;;;;6.57;2.58;;;;;;;19.07;52.62;99417.03;5063336;28;20036;-19
2021/12/12 11:03:05;;;;;;;10.10;3.08;;;;;;;19.34;53.60;99415.59;5067620;28;20117;-20
2021/12/12 11:05:41;;;;;;;6.50;2.40;;;;;;;18.71;54.23;99427.47;5067442;28;20512;-19
2021/12/12 11:08:20;;;;;;;5.63;2.15;;;;;;;18.74;53.47;99422.28;5066419;28;20465;-19
2021/12/12 11:10:47;;;;;;;5.45;2.17;;;;;;;18.74;51.49;99422.28;5049712;28;20071;-19
2021/12/12 11:13:19;;;;;;;3.92;1.75;;;;;;;18.38;53.34;99422.69;5033418;28;20043;-19
2021/12/12 11:15:48;;;;;;;5.78;2.20;;;;;;;18.76;51.50;99433.63;5049768;28;20137;-20
2021/12/12 11:18:24;;;;;;;12.13;7.28;;;;;;;18.26;52.57;99441.16;5049108;28;20470;-20
2021/12/12 11:21:09;;;;;;;4.18;1.55;;;;;;;19.04;50.78;99439.22;5049413;28;20021;-20
2021/12/12 11:23:59;;;;;;;5.32;2.13;;;;;;;18.97;52.46;99441.50;5051883;28;20032;-20
2021/12/12 11:26:48;;;;;;;6.03;2.47;;;;;;;18.52;52.25;99440.91;5056140;28;20579;-20
2021/12/12 11:29:16;;;;;;;6.30;2.60;;;;;;;18.26;52.34;99435.75;5067169;28;20489;-19
2021/12/12 11:31:48;;;;;;;4.93;2.10;;;;;;;17.84;52.70;99429.94;5067365;28;20081;-19
2021/12/12 11:34:13;;;;;;;4.30;1.83;;;;;;;18.11;52.00;99417.84;5067061;28;20043;-19
2021/12/12 11:37:06;;;;;;;5.03;1.80;;;;;;;18.52;54.83;99430.91;5048773;28;20056;-19
2021/12/12 11:39:58;;;;;;;7.47;3.38;;;;;;;18.55;51.93;99434.94;5052173;28;20468;-20
2021/12/12 11:42:33;;;;;;;8.45;4.10;;;;;;;18.93;51.60;99437.75;5051940;28;20032;-21
2021/12/12 11:45:25;;;;;;;10.27;4.40;;;;;;;17.57;57.21;99430.41;5050336;28;20028;-19
2021/12/12 11:48:12;;;;;;;11.23;5.63;;;;;;;16.98;60.33;99420.50;5036021;28;20040;-19
2021/12/12 11:51:02;;;;;;;19.55;9.55;;;;;;;16.06;59.58;99433.13;5054068;28;20035;-19
2021/12/12 11:53:48;;;;;;;14.15;7.88;;;;;;;15.72;61.63;99438.22;5056049;28;20569;-19
2021/12/12 11:56:24;;;;;;;14.63;8.60;;;;;;;16.11;61.97;99431.50;5071022;28;20035;-19
2021/12/12 11:59:04;;;;;;;13.75;5.82;;;;;;;16.60;60.20;99433.56;5052961;28;20097;-19
2021/12/12 12:01:51;;;;;;;8.75;3.40;;;;;;;16.60;62.44;99433.56;5071016;28;20488;-19
2021/12/12 12:04:33;;;;;;;6.50;2.70;;;;;;;16.90;61.81;99432.66;5070953;28;20039;-19
2021/12/12 12:07:13;;;;;;;9.88;4.30;;;;;;;16.82;60.90;99433.25;5037688;28;20028;-20
2021/12/12 12:09:49;;;;;;;9.85;4.22;;;;;;;15.72;63.12;99423.97;5070723;28;20060;-19
2021/12/12 12:12:24;;;;;;;10.63;4.55;;;;;;;15.08;66.65;99420.63;5070674;28;20043;-19